TimeCDT,TemperatureF,Dew PointF,Humidity,Sea Level PressureIn,VisibilityMPH,Wind Direction,Wind SpeedMPH,Gust SpeedMPH,PrecipitationIn,Events,Conditions,WindDirDegrees,DateUTC
12:15 AM,71.6,67.3,86,30.14,10.0,WSW,4.6,-,N/A,,Overcast,250,2013-09-12 05:15:00
12:35 AM,71.4,67.3,87,30.14,10.0,WSW,3.5,-,N/A,,Overcast,250,2013-09-12 05:35:00
12:55 AM,71.2,67.1,87,30.13,10.0,SW,5.8,-,N/A,,Overcast,230,2013-09-12 05:55:00
1:15 AM,70.7,67.1,88,30.13,10.0,West,3.5,-,N/A,,Overcast,260,2013-09-12 06:15:00
1:35 AM,70.7,66.7,87,30.14,10.0,NW,5.8,-,N/A,,Mostly Cloudy,310,2013-09-12 06:35:00
1:55 AM,70.2,66.2,87,30.14,10.0,NW,4.6,-,N/A,,Scattered Clouds,310,2013-09-12 06:55:00
2:15 AM,69.1,66.0,90,30.15,10.0,Calm,Calm,-,N/A,,Mostly Cloudy,0,2013-09-12 07:15:00
2:35 AM,69.8,66.2,88,30.15,10.0,West,3.5,-,N/A,,Overcast,280,2013-09-12 07:35:00
2:55 AM,70.0,66.2,88,30.15,10.0,WNW,3.5,-,N/A,,Overcast,290,2013-09-12 07:55:00
3:15 AM,70.3,65.8,86,30.15,10.0,WNW,4.6,-,N/A,,Overcast,290,2013-09-12 08:15:00
3:35 AM,68.9,65.3,88,30.14,10.0,West,3.5,-,N/A,,Mostly Cloudy,270,2013-09-12 08:35:00
3:55 AM,68.2,64.8,89,30.14,10.0,West,3.5,-,N/A,,Clear,270,2013-09-12 08:55:00
4:15 AM,68.2,64.6,88,30.13,10.0,Calm,Calm,-,N/A,,Clear,0,2013-09-12 09:15:00
4:35 AM,67.8,65.1,91,30.14,10.0,Calm,Calm,-,N/A,,Clear,0,2013-09-12 09:35:00
4:55 AM,66.7,64.0,91,30.15,10.0,North,4.6,-,N/A,,Clear,350,2013-09-12 09:55:00
5:15 AM,66.2,63.5,91,30.16,7.0,NNW,3.5,-,N/A,,Clear,340,2013-09-12 10:15:00
5:35 AM,65.3,63.1,93,30.16,7.0,NNW,3.5,-,N/A,,Clear,340,2013-09-12 10:35:00
5:55 AM,64.9,62.8,93,30.16,7.0,NNW,5.8,-,N/A,,Clear,340,2013-09-12 10:55:00
6:15 AM,64.6,62.1,92,30.16,7.0,North,4.6,-,N/A,,Clear,350,2013-09-12 11:15:00
6:35 AM,63.5,61.2,92,30.17,10.0,North,4.6,-,N/A,,Clear,350,2013-09-12 11:35:00
6:55 AM,62.6,60.1,91,30.17,10.0,North,5.8,-,N/A,,Clear,350,2013-09-12 11:55:00
7:15 AM,62.6,59.9,91,30.18,10.0,North,6.9,-,N/A,,Clear,350,2013-09-12 12:15:00
7:35 AM,62.2,59.4,90,30.19,10.0,North,5.8,-,N/A,,Clear,350,2013-09-12 12:35:00
7:55 AM,62.8,59.9,90,30.20,10.0,North,5.8,-,N/A,,Clear,360,2013-09-12 12:55:00
8:15 AM,64.4,60.1,86,30.20,10.0,North,5.8,-,N/A,,Clear,350,2013-09-12 13:15:00
8:35 AM,65.3,60.1,83,30.21,10.0,North,5.8,-,N/A,,Clear,360,2013-09-12 13:35:00
8:55 AM,66.9,58.8,75,30.22,10.0,North,4.6,-,N/A,,Clear,10,2013-09-12 13:55:00
9:15 AM,69.3,55.9,62,30.22,10.0,NNE,8.1,-,N/A,,Clear,20,2013-09-12 14:15:00
9:35 AM,70.7,53.4,54,30.22,10.0,NNE,9.2,-,N/A,,Clear,30,2013-09-12 14:35:00
9:55 AM,71.8,52.7,51,30.23,10.0,NNE,10.4,-,N/A,,Clear,20,2013-09-12 14:55:00
10:15 AM,73.2,52.5,48,30.24,10.0,NE,9.2,-,N/A,,Clear,40,2013-09-12 15:15:00
10:35 AM,74.3,51.4,45,30.24,10.0,NE,12.7,-,N/A,,Clear,50,2013-09-12 15:35:00
10:55 AM,75.6,50.2,41,30.24,10.0,NE,12.7,-,N/A,,Clear,40,2013-09-12 15:55:00
11:15 AM,76.8,50.2,39,30.25,10.0,NE,10.4,-,N/A,,Clear,50,2013-09-12 16:15:00
11:35 AM,77.2,49.1,37,30.25,10.0,NE,10.4,16.1,N/A,,Clear,40,2013-09-12 16:35:00
11:55 AM,78.1,50.0,37,30.25,10.0,North,11.5,16.1,N/A,,Clear,10,2013-09-12 16:55:00
12:15 PM,78.3,46.6,33,30.24,10.0,NNE,12.7,17.3,N/A,,Clear,30,2013-09-12 17:15:00
12:35 PM,78.6,47.3,33,30.24,10.0,NE,12.7,-,N/A,,Clear,40,2013-09-12 17:35:00
12:55 PM,79.2,46.9,32,30.24,10.0,NNE,11.5,16.1,N/A,,Clear,30,2013-09-12 17:55:00
1:15 PM,78.8,47.7,33,30.24,10.0,NE,15.0,21.9,N/A,,Clear,50,2013-09-12 18:15:00
1:35 PM,79.0,47.8,33,30.23,10.0,NE,13.8,17.3,N/A,,Clear,40,2013-09-12 18:35:00
1:55 PM,79.2,48.0,33,30.23,10.0,NE,11.5,-,N/A,,Clear,40,2013-09-12 18:55:00
2:15 PM,80.2,48.2,32,30.22,10.0,ENE,8.1,-,N/A,,Clear,60,2013-09-12 19:15:00
2:35 PM,81.0,48.7,32,30.22,10.0,NE,9.2,-,N/A,,Clear,40,2013-09-12 19:35:00
2:55 PM,80.8,49.5,33,30.21,10.0,North,4.6,-,N/A,,Clear,360,2013-09-12 19:55:00
3:15 PM,81.5,46.8,29,30.20,10.0,NE,10.4,-,N/A,,Clear,40,2013-09-12 20:15:00
3:35 PM,81.0,48.2,32,30.20,10.0,ENE,9.2,-,N/A,,Clear,70,2013-09-12 20:35:00
3:55 PM,80.4,48.4,32,30.19,10.0,Calm,Calm,-,N/A,,Clear,0,2013-09-12 20:55:00
4:15 PM,81.1,49.1,33,30.19,10.0,NE,8.1,-,N/A,,Clear,40,2013-09-12 21:15:00
4:35 PM,80.8,47.7,31,30.18,10.0,North,8.1,26.5,N/A,,Clear,360,2013-09-12 21:35:00
4:55 PM,79.5,45.9,30,30.18,10.0,NE,8.1,-,N/A,,Clear,40,2013-09-12 21:55:00
5:15 PM,79.9,46.6,31,30.19,10.0,NNE,8.1,-,N/A,,Clear,30,2013-09-12 22:15:00
5:35 PM,78.1,46.2,32,30.18,10.0,NNE,8.1,-,N/A,,Clear,30,2013-09-12 22:35:00
5:55 PM,78.3,46.0,32,30.19,10.0,NNE,10.4,18.4,N/A,,Clear,30,2013-09-12 22:55:00
6:15 PM,77.0,46.9,34,30.19,10.0,North,6.9,-,N/A,,Clear,10,2013-09-12 23:15:00
6:35 PM,76.5,49.5,39,30.19,10.0,NNE,6.9,-,N/A,,Clear,20,2013-09-12 23:35:00
6:55 PM,74.5,50.0,42,30.19,10.0,NNE,4.6,-,N/A,,Clear,20,2013-09-12 23:55:00
7:15 PM,70.3,50.0,48,30.19,10.0,North,6.9,-,N/A,,Clear,10,2013-09-13 00:15:00
7:35 PM,66.9,51.6,58,30.20,10.0,North,6.9,-,N/A,,Clear,10,2013-09-13 00:35:00
7:55 PM,63.9,53.1,68,30.20,10.0,NNE,4.6,-,N/A,,Clear,30,2013-09-13 00:55:00
8:15 PM,63.7,52.9,68,30.20,10.0,NNE,3.5,-,N/A,,Clear,20,2013-09-13 01:15:00
8:35 PM,64.4,51.3,62,30.21,10.0,Calm,Calm,-,N/A,,Clear,0,2013-09-13 01:35:00
8:55 PM,63.7,50.7,63,30.21,10.0,Calm,Calm,-,N/A,,Clear,0,2013-09-13 01:55:00
9:15 PM,60.4,52.7,76,30.21,10.0,North,4.6,-,N/A,,Clear,360,2013-09-13 02:15:00
9:35 PM,60.1,53.2,78,30.21,10.0,North,3.5,-,N/A,,Clear,350,2013-09-13 02:35:00
9:55 PM,59.4,53.6,81,30.21,10.0,North,4.6,-,N/A,,Clear,350,2013-09-13 02:55:00
10:15 PM,58.5,52.9,82,30.21,10.0,North,5.8,-,N/A,,Clear,350,2013-09-13 03:15:00
10:35 PM,57.7,52.7,83,30.21,10.0,NNW,3.5,-,N/A,,Clear,340,2013-09-13 03:35:00
10:55 PM,57.2,52.0,83,30.22,10.0,NNW,3.5,-,N/A,,Clear,340,2013-09-13 03:55:00
11:15 PM,56.7,51.8,84,30.21,10.0,Calm,Calm,-,N/A,,Clear,0,2013-09-13 04:15:00
11:35 PM,60.4,51.3,72,30.22,10.0,Calm,Calm,-,N/A,,Clear,0,2013-09-13 04:35:00
11:55 PM,60.1,51.3,73,30.22,10.0,Calm,Calm,-,N/A,,Clear,0,2013-09-13 04:55:00